createdAt,value
2023-05-10T00:01:15.443Z,46.30
2023-05-10T00:06:14.842Z,46.67
2023-05-10T00:11:14.852Z,46.65
2023-05-10T00:16:15.727Z,46.59
2023-05-10T00:21:15.100Z,46.85
2023-05-10T00:26:16.570Z,46.91
2023-05-10T00:31:15.253Z,47.19
2023-05-10T00:36:16.224Z,46.88
2023-05-10T00:41:15.617Z,46.85
2023-05-10T00:46:15.990Z,46.78
2023-05-10T00:51:14.997Z,46.86
2023-05-10T00:56:15.395Z,46.52
2023-05-10T01:01:15.374Z,46.46
2023-05-10T01:06:14.803Z,46.23
2023-05-10T01:11:15.222Z,46.09
2023-05-10T01:16:15.771Z,46.08
2023-05-10T01:21:23.265Z,45.83
2023-05-10T01:26:27.730Z,45.80
2023-05-10T01:31:27.347Z,45.71
2023-05-10T01:36:26.969Z,45.66
2023-05-10T01:41:18.478Z,45.53
2023-05-10T01:46:20.615Z,45.71
2023-05-10T01:51:19.061Z,45.72
2023-05-10T01:56:15.734Z,45.67
2023-05-10T02:01:16.538Z,45.48
2023-05-10T02:06:16.658Z,45.77
2023-05-10T02:11:15.054Z,45.62
2023-05-10T02:16:16.926Z,45.80
2023-05-10T02:21:15.928Z,45.67
2023-05-10T02:26:17.066Z,45.92
2023-05-10T02:31:15.629Z,45.73
2023-05-10T02:36:16.436Z,45.99
2023-05-10T02:41:15.263Z,46.21
2023-05-10T02:46:15.350Z,46.30
2023-05-10T02:51:18.042Z,46.51
2023-05-10T02:56:23.569Z,46.76
2023-05-10T03:01:17.982Z,46.70
2023-05-10T03:06:16.269Z,46.84
2023-05-10T03:11:27.682Z,47.30
2023-05-10T03:16:20.133Z,47.57
2023-05-10T03:21:18.648Z,47.24
2023-05-10T03:26:23.187Z,47.27
2023-05-10T03:31:14.911Z,47.47
2023-05-10T03:36:14.744Z,47.56
2023-05-10T03:41:14.952Z,47.71
2023-05-10T03:46:14.871Z,47.80
2023-05-10T03:51:14.763Z,48.12
2023-05-10T03:56:14.611Z,47.91
2023-05-10T04:01:14.694Z,47.95
2023-05-10T04:06:14.639Z,48.01
2023-05-10T04:11:14.685Z,47.81
2023-05-10T04:16:14.577Z,47.56
2023-05-10T04:21:15.179Z,47.29
2023-05-10T04:26:14.954Z,47.09
2023-05-10T04:31:14.859Z,47.06
2023-05-10T04:36:14.810Z,46.62
2023-05-10T04:41:14.674Z,46.49
2023-05-10T04:46:14.687Z,46.01
2023-05-10T04:51:14.948Z,45.59
2023-05-10T04:56:14.767Z,45.37
2023-05-10T05:01:14.734Z,44.78
2023-05-10T05:06:14.824Z,44.63
2023-05-10T05:11:14.542Z,44.13
2023-05-10T05:16:14.581Z,43.57
2023-05-10T05:21:15.800Z,43.40
2023-05-10T05:26:15.045Z,42.98
2023-05-10T05:31:14.766Z,43.13
2023-05-10T05:36:14.744Z,42.09
2023-05-10T05:41:14.553Z,42.08
2023-05-10T05:46:14.807Z,42.02
2023-05-10T05:51:14.853Z,41.47
2023-05-10T05:56:14.517Z,41.31
2023-05-10T06:01:14.534Z,40.62
2023-05-10T06:06:14.715Z,40.51
2023-05-10T06:11:14.598Z,39.89
2023-05-10T06:16:14.611Z,38.63
2023-05-10T06:21:16.147Z,37.79
2023-05-10T06:26:14.492Z,37.18
2023-05-10T06:31:14.590Z,37.14
2023-05-10T06:36:14.878Z,36.23
2023-05-10T06:41:14.524Z,35.08
2023-05-10T06:46:14.734Z,34.63
2023-05-10T06:51:14.652Z,32.61
2023-05-10T06:56:14.468Z,32.88
2023-05-10T07:01:14.890Z,30.76
2023-05-10T07:06:29.460Z,30.36
2023-05-10T07:11:14.446Z,29.94
2023-05-10T07:16:14.580Z,28.90
2023-05-10T07:21:15.004Z,27.21
2023-05-10T07:26:14.876Z,27.13
2023-05-10T07:31:14.571Z,26.26
2023-05-10T07:36:14.652Z,25.21
2023-05-10T07:41:14.396Z,24.59
2023-05-10T07:46:14.688Z,23.36
2023-05-10T07:51:14.814Z,23.92
2023-05-10T07:56:23.313Z,23.86
2023-05-10T08:01:14.567Z,22.21
2023-05-10T08:06:15.702Z,21.55
2023-05-10T08:11:14.377Z,21.04
2023-05-10T08:16:15.586Z,22.13
2023-05-10T08:21:15.579Z,20.94
2023-05-10T08:26:14.585Z,20.91
2023-05-10T08:31:15.537Z,22.18
2023-05-10T08:36:19.754Z,21.90
2023-05-10T08:41:14.596Z,21.88
2023-05-10T08:46:17.216Z,22.58
2023-05-10T08:51:17.787Z,21.42
2023-05-10T08:56:15.954Z,21.15
2023-05-10T09:00:51.057Z,21.15
2023-05-10T09:01:16.648Z,21.81
2023-05-10T09:06:15.487Z,21.92
2023-05-10T09:11:14.525Z,22.16
2023-05-10T09:21:14.766Z,22.46
2023-05-10T09:26:14.718Z,22.53
2023-05-10T09:31:14.429Z,22.04
2023-05-10T09:36:16.022Z,22.23
2023-05-10T09:41:17.466Z,22.64
2023-05-10T09:46:15.654Z,22.13
2023-05-10T09:51:20.673Z,22.32
2023-05-10T09:56:28.315Z,21.94
2023-05-10T10:01:14.526Z,21.73
2023-05-10T10:06:26.796Z,21.42
2023-05-10T10:11:16.710Z,21.74
2023-05-10T10:16:14.840Z,22.05
2023-05-10T10:21:15.644Z,21.67
2023-05-10T10:26:15.372Z,22.18
2023-05-10T10:31:23.848Z,22.30
2023-05-10T10:36:15.589Z,22.85
2023-05-10T10:41:29.155Z,22.48
2023-05-10T10:46:17.157Z,22.68
2023-05-10T10:51:14.755Z,22.13
2023-05-10T10:56:15.195Z,21.89
2023-05-10T11:01:15.665Z,22.32
2023-05-10T11:06:28.754Z,22.35
2023-05-10T11:11:15.157Z,22.43
2023-05-10T11:16:17.083Z,22.59
2023-05-10T11:21:15.453Z,22.78
2023-05-10T11:26:14.805Z,22.91
2023-05-10T11:31:15.483Z,23.09
2023-05-10T11:36:15.907Z,23.86
2023-05-10T11:41:16.734Z,24.32
2023-05-10T11:46:15.119Z,24.34
2023-05-10T11:51:14.754Z,24.21
2023-05-10T11:56:14.428Z,23.49
2023-05-10T12:01:14.436Z,24.41
2023-05-10T12:06:16.070Z,24.28
2023-05-10T12:11:15.452Z,23.72
2023-05-10T12:16:15.486Z,23.32
2023-05-10T12:21:15.558Z,23.93
2023-05-10T12:26:14.515Z,24.59
2023-05-10T12:31:14.684Z,24.26
2023-05-10T12:36:15.820Z,24.32
2023-05-10T12:41:15.834Z,24.48
2023-05-10T12:46:17.117Z,23.45
2023-05-10T12:51:17.070Z,23.76
2023-05-10T12:56:15.000Z,24.11
2023-05-10T13:01:14.627Z,24.38
2023-05-10T13:06:14.568Z,24.23
2023-05-10T13:11:16.554Z,24.81
2023-05-10T13:16:14.343Z,25.34
2023-05-10T13:21:14.340Z,24.65
2023-05-10T13:26:14.558Z,25.30
2023-05-10T13:31:14.295Z,25.57
2023-05-10T13:36:14.488Z,25.84
2023-05-10T13:41:14.409Z,26.18
2023-05-10T13:46:14.388Z,26.22
2023-05-10T13:51:14.384Z,26.58
2023-05-10T13:56:37.557Z,25.56
2023-05-10T14:01:15.179Z,25.91
2023-05-10T14:06:14.582Z,25.58
2023-05-10T14:11:14.647Z,25.37
2023-05-10T14:16:15.006Z,25.36
2023-05-10T14:21:15.356Z,25.25
2023-05-10T14:26:14.455Z,24.85
2023-05-10T14:31:14.763Z,25.41
2023-05-10T14:36:14.269Z,25.19
2023-05-10T14:41:17.439Z,25.38
2023-05-10T14:46:14.220Z,25.65
2023-05-10T14:51:14.365Z,25.28
2023-05-10T14:56:14.980Z,25.15
2023-05-10T15:01:14.607Z,26.04
2023-05-10T15:06:15.099Z,26.19
2023-05-10T15:11:14.752Z,26.05
2023-05-10T15:16:14.423Z,25.79
2023-05-10T15:21:14.894Z,25.99
2023-05-10T15:26:14.377Z,26.06
2023-05-10T15:31:14.337Z,25.91
2023-05-10T15:36:14.256Z,26.13
2023-05-10T15:41:14.335Z,26.48
2023-05-10T15:46:14.214Z,26.49
2023-05-10T15:51:14.780Z,26.81
2023-05-10T15:56:14.604Z,26.83
2023-05-10T16:01:14.440Z,26.87
2023-05-10T16:06:14.414Z,27.07
2023-05-10T16:11:14.434Z,26.80
2023-05-10T16:16:14.345Z,26.94
2023-05-10T16:21:14.556Z,26.98
2023-05-10T16:26:14.280Z,27.34
2023-05-10T16:31:14.528Z,27.16
2023-05-10T16:36:14.378Z,26.83
2023-05-10T16:41:14.313Z,27.02
2023-05-10T16:46:14.668Z,27.38
2023-05-10T16:51:14.252Z,27.51
2023-05-10T16:56:17.398Z,27.47
2023-05-10T17:01:14.201Z,27.61
2023-05-10T17:06:14.609Z,27.68
2023-05-10T17:11:14.478Z,27.89
2023-05-10T17:21:15.492Z,28.23
2023-05-10T17:26:14.853Z,28.25
2023-05-10T17:31:14.359Z,28.04
2023-05-10T18:03:07.420Z,29.17
2023-05-10T18:08:07.346Z,29.49
2023-05-10T18:13:08.776Z,29.74
2023-05-10T18:18:06.756Z,29.87
2023-05-10T18:23:07.207Z,30.04
2023-05-10T18:28:07.294Z,30.36
2023-05-10T18:33:07.480Z,30.66
2023-05-10T18:38:08.815Z,30.91
2023-05-10T18:43:07.017Z,31.11
2023-05-10T18:43:14.561Z,31.11
2023-05-10T18:43:34.944Z,31.11
2023-05-10T18:48:07.039Z,31.46
2023-05-10T18:50:12.212Z,31.46
2023-05-10T18:53:07.249Z,31.48
2023-05-10T18:58:06.663Z,31.83
2023-05-10T19:03:07.212Z,31.94
2023-05-10T19:08:06.963Z,32.20
2023-05-10T19:13:08.301Z,32.53
2023-05-10T19:18:09.007Z,32.66
2023-05-10T19:23:10.148Z,32.79
2023-05-10T19:28:07.009Z,32.87
2023-05-10T19:33:08.317Z,32.81
2023-05-10T19:38:06.500Z,32.97
2023-05-10T19:43:07.040Z,33.17
2023-05-10T19:48:06.768Z,33.31
2023-05-10T19:53:06.582Z,33.34
2023-05-10T19:57:24.805Z,33.34
2023-05-10T19:58:06.514Z,33.51
2023-05-10T20:03:09.183Z,33.87
2023-05-10T20:08:07.084Z,34.02
2023-05-10T20:13:06.699Z,34.28
2023-05-10T20:18:06.850Z,34.37
2023-05-10T20:23:06.696Z,34.62
2023-05-10T20:28:07.478Z,34.84
2023-05-10T20:33:07.966Z,35.09
2023-05-10T20:38:06.473Z,35.37
2023-05-10T21:10:31.849Z,37.98
2023-05-10T21:15:07.552Z,37.98
2023-05-10T21:20:07.551Z,38.24
2023-05-10T21:25:07.840Z,38.27
2023-05-10T21:30:08.091Z,38.28
2023-05-10T21:35:07.744Z,38.35
2023-05-10T21:40:08.159Z,38.34
2023-05-10T21:45:07.509Z,38.43
2023-05-10T21:50:09.068Z,38.75
2023-05-10T21:55:08.807Z,38.48
2023-05-10T22:00:09.285Z,38.47
2023-05-10T22:05:07.058Z,38.35
2023-05-10T22:10:08.206Z,38.53
2023-05-10T22:20:08.388Z,38.58
2023-05-10T22:25:07.986Z,38.75
2023-05-10T22:30:08.356Z,38.77
2023-05-10T22:35:07.446Z,38.77
2023-05-10T22:40:07.724Z,38.90
2023-05-10T22:45:08.223Z,39.24
2023-05-10T22:50:08.447Z,38.96
2023-05-10T22:55:09.009Z,39.05
2023-05-10T23:00:07.270Z,39.30
2023-05-10T23:05:07.698Z,39.35
2023-05-10T23:10:07.249Z,39.34
2023-05-10T23:15:07.923Z,39.24
2023-05-10T23:20:07.782Z,39.67
2023-05-10T23:25:08.464Z,39.46
2023-05-10T23:30:07.995Z,39.77
2023-05-10T23:35:07.681Z,39.96
2023-05-10T23:40:08.626Z,39.82
2023-05-10T23:45:07.314Z,40.36
2023-05-10T23:50:07.763Z,40.23
2023-05-10T23:55:08.432Z,40.26
